createdAt,value
2019-05-20T00:02:25.943Z,25.60
2019-05-20T00:04:47.186Z,26.47
2019-05-20T00:07:14.808Z,24.87
2019-05-20T00:09:42.401Z,26.50
2019-05-20T00:12:09.991Z,26.60
2019-05-20T00:14:37.623Z,32.08
2019-05-20T00:17:05.210Z,28.33
2019-05-20T00:19:33.564Z,24.83
2019-05-20T00:22:01.223Z,25.50
2019-05-20T00:24:28.844Z,26.07
2019-05-20T00:26:56.429Z,28.07
2019-05-20T00:29:24.044Z,26.63
2019-05-20T00:31:52.398Z,27.20
2019-05-20T00:34:34.143Z,28.00
2019-05-20T00:36:47.622Z,35.25
2019-05-20T00:39:17.954Z,30.60
2019-05-20T00:41:45.580Z,28.83
2019-05-20T00:44:13.162Z,27.83
2019-05-20T00:46:40.753Z,28.70
2019-05-20T00:49:08.384Z,33.90
2019-05-20T00:51:35.970Z,29.47
2019-05-20T00:54:03.555Z,28.20
2019-05-20T00:56:33.342Z,25.67
2019-05-20T00:59:00.925Z,26.03
2019-05-20T01:01:28.509Z,27.87
2019-05-20T01:03:56.133Z,27.20
2019-05-20T01:06:23.718Z,27.83
2019-05-20T01:08:51.360Z,27.50
2019-05-20T01:11:19.719Z,27.33
2019-05-20T01:13:47.298Z,26.60
2019-05-20T01:16:14.920Z,27.10
2019-05-20T01:18:42.509Z,27.40
2019-05-20T01:21:10.094Z,28.83
2019-05-20T01:23:37.723Z,34.15
2019-05-20T01:26:05.309Z,28.10
2019-05-20T01:28:33.666Z,28.23
2019-05-20T01:31:01.275Z,33.97
2019-05-20T01:33:28.874Z,30.03
2019-05-20T01:35:56.527Z,29.97
2019-05-20T01:38:24.084Z,27.90
2019-05-20T01:40:51.685Z,27.77
2019-05-20T01:43:19.299Z,26.67
2019-05-20T01:45:47.399Z,26.97
2019-05-20T01:48:15.015Z,27.90
2019-05-20T01:50:43.381Z,28.23
2019-05-20T01:53:11.036Z,27.87
2019-05-20T01:55:38.616Z,27.87
2019-05-20T01:58:06.970Z,27.47
2019-05-20T02:00:34.597Z,27.03
2019-05-20T02:03:02.192Z,34.13
2019-05-20T02:05:29.787Z,29.50
2019-05-20T02:07:58.201Z,28.53
2019-05-20T02:10:25.777Z,27.07
2019-05-20T02:12:53.360Z,27.73
2019-05-20T02:15:33.720Z,27.20
2019-05-20T02:18:01.315Z,35.17
2019-05-20T02:20:28.914Z,34.53
2019-05-20T02:22:56.528Z,29.43
2019-05-20T02:25:24.883Z,35.10
2019-05-20T02:27:53.059Z,28.10
2019-05-20T02:30:20.656Z,28.17
2019-05-20T02:32:49.011Z,27.23
2019-05-20T02:35:16.630Z,27.27
2019-05-20T02:37:44.229Z,26.70
2019-05-20T02:40:11.808Z,27.13
2019-05-20T02:42:40.196Z,26.90
2019-05-20T02:45:08.555Z,25.40
2019-05-20T02:47:36.145Z,27.30
2019-05-20T02:50:03.787Z,26.57
2019-05-20T02:52:31.370Z,26.47
2019-05-20T02:54:59.721Z,26.77
2019-05-20T02:57:27.335Z,25.80
2019-05-20T02:59:54.932Z,25.93
2019-05-20T03:02:22.568Z,26.90
2019-05-20T03:04:50.159Z,32.38
2019-05-20T03:07:17.742Z,28.37
2019-05-20T03:09:46.128Z,32.15
2019-05-20T03:12:14.482Z,28.53
2019-05-20T03:14:42.062Z,26.07
2019-05-20T03:17:10.453Z,33.83
2019-05-20T03:19:38.804Z,27.37
2019-05-20T03:22:06.395Z,26.60
2019-05-20T03:24:34.780Z,27.13
2019-05-20T03:27:03.178Z,27.33
2019-05-20T03:29:30.795Z,27.70
2019-05-20T03:31:58.393Z,26.70
2019-05-20T03:34:45.635Z,26.50
2019-05-20T03:36:53.589Z,27.27
2019-05-20T03:39:21.183Z,27.60
2019-05-20T03:41:49.084Z,27.03
2019-05-20T03:44:16.709Z,28.17
2019-05-20T03:46:44.302Z,28.37
2019-05-20T03:49:11.885Z,27.47
2019-05-20T03:51:39.517Z,26.87
2019-05-20T03:54:07.111Z,27.13
2019-05-20T03:56:34.696Z,26.20
2019-05-20T03:59:03.091Z,27.17
2019-05-20T04:01:31.434Z,26.17
2019-05-20T04:03:59.025Z,25.87
2019-05-20T04:06:27.409Z,26.80
2019-05-20T04:08:55.763Z,27.33
2019-05-20T04:11:23.486Z,25.73
2019-05-20T04:13:51.074Z,33.40
2019-05-20T04:16:18.651Z,27.23
2019-05-20T04:18:46.285Z,27.30
2019-05-20T04:21:13.869Z,32.75
2019-05-20T04:23:41.490Z,26.40
2019-05-20T04:26:09.110Z,34.28
2019-05-20T04:28:36.706Z,28.43
2019-05-20T04:31:04.291Z,27.57
2019-05-20T04:33:31.902Z,27.40
2019-05-20T04:36:00.257Z,26.80
2019-05-20T04:38:27.900Z,27.03
2019-05-20T04:40:55.489Z,32.63
2019-05-20T04:43:23.080Z,28.20
2019-05-20T04:45:51.486Z,26.73
2019-05-20T04:48:19.072Z,28.13
2019-05-20T04:50:46.652Z,27.30
2019-05-20T04:53:14.288Z,27.23
2019-05-20T04:55:41.871Z,32.45
2019-05-20T04:58:09.461Z,27.80
2019-05-20T05:00:38.235Z,27.70
2019-05-20T05:03:05.825Z,28.33
2019-05-20T05:05:37.825Z,25.00
2019-05-20T05:08:01.041Z,27.10
2019-05-20T05:10:29.395Z,26.03
2019-05-20T05:12:56.990Z,26.13
2019-05-20T05:15:25.426Z,31.15
2019-05-20T05:17:53.009Z,28.43
2019-05-20T05:20:20.594Z,27.13
2019-05-20T05:22:48.253Z,26.33
2019-05-20T05:25:18.305Z,27.63
2019-05-20T05:27:45.932Z,27.47
2019-05-20T05:30:14.301Z,27.13
2019-05-20T05:32:42.722Z,26.27
2019-05-20T05:35:13.036Z,27.30
2019-05-20T05:37:40.626Z,26.40
2019-05-20T05:40:08.466Z,28.03
2019-05-20T05:42:35.838Z,28.30
2019-05-20T05:45:03.431Z,25.90
2019-05-20T05:47:31.071Z,28.40
2019-05-20T05:49:58.657Z,33.60
2019-05-20T05:52:26.247Z,29.57
2019-05-20T05:54:54.687Z,34.72
2019-05-20T05:57:22.277Z,28.77
2019-05-20T05:59:49.874Z,29.10
2019-05-20T06:02:17.558Z,27.73
2019-05-20T06:04:45.137Z,27.43
2019-05-20T06:07:12.721Z,28.03
2019-05-20T06:09:41.097Z,25.03
2019-05-20T06:12:08.718Z,30.07
2019-05-20T06:14:36.300Z,63.45
2019-05-20T06:17:03.937Z,65.27
2019-05-20T06:19:31.522Z,27.27
2019-05-20T06:21:59.116Z,79.63
2019-05-20T06:24:26.759Z,45.80
2019-05-20T06:26:54.350Z,24.10
2019-05-20T06:29:22.713Z,24.67
2019-05-20T06:31:50.355Z,23.43
2019-05-20T06:34:17.947Z,28.60
2019-05-20T06:36:45.536Z,26.20
2019-05-20T06:39:13.170Z,22.33
2019-05-20T06:41:40.745Z,22.90
2019-05-20T06:44:09.412Z,30.67
2019-05-20T06:46:36.995Z,27.58
2019-05-20T06:49:05.360Z,28.10
2019-05-20T06:51:33.000Z,29.37
2019-05-20T06:54:00.590Z,27.73
2019-05-20T06:56:28.950Z,24.33
2019-05-20T06:58:56.903Z,29.47
2019-05-20T07:01:25.232Z,34.77
2019-05-20T07:03:52.838Z,20.73
2019-05-20T07:06:20.431Z,25.25
2019-05-20T07:08:48.019Z,24.20
2019-05-20T07:11:16.814Z,22.23
2019-05-20T07:13:44.379Z,20.33
2019-05-20T07:16:12.003Z,20.13
2019-05-20T07:18:39.609Z,17.40
2019-05-20T07:21:07.209Z,17.23
2019-05-20T07:23:34.804Z,17.47
2019-05-20T07:26:02.414Z,17.77
2019-05-20T07:28:30.026Z,17.83
2019-05-20T07:30:57.707Z,17.63
2019-05-20T07:33:25.218Z,21.50
2019-05-20T07:35:52.808Z,18.37
2019-05-20T07:38:20.764Z,18.53
2019-05-20T07:40:48.328Z,18.23
2019-05-20T07:43:16.482Z,18.17
2019-05-20T07:45:44.150Z,17.67
2019-05-20T07:48:11.745Z,18.13
2019-05-20T07:50:40.173Z,22.77
2019-05-20T07:53:08.516Z,16.80
2019-05-20T07:55:39.569Z,35.37
2019-05-20T07:58:07.218Z,16.13
2019-05-20T08:00:35.570Z,19.97
2019-05-20T08:03:03.210Z,17.97
2019-05-20T08:05:31.538Z,19.80
2019-05-20T08:07:59.963Z,17.30
2019-05-20T08:10:27.545Z,18.33
2019-05-20T08:12:55.141Z,20.85
2019-05-20T08:15:22.723Z,17.57
2019-05-20T08:17:50.361Z,16.43
2019-05-20T08:20:17.949Z,15.97
2019-05-20T08:22:45.547Z,17.97
2019-05-20T08:25:13.639Z,17.50
2019-05-20T08:27:41.228Z,16.40
2019-05-20T08:30:09.595Z,19.65
2019-05-20T08:32:37.215Z,15.27
2019-05-20T08:35:07.725Z,17.23
2019-05-20T08:37:44.870Z,17.07
2019-05-20T08:40:02.969Z,17.83
2019-05-20T08:42:31.872Z,19.83
2019-05-20T08:44:59.843Z,22.47
2019-05-20T08:47:27.426Z,20.00
2019-05-20T08:49:55.174Z,16.67
2019-05-20T08:52:23.470Z,18.07
2019-05-20T08:54:51.068Z,15.50
2019-05-20T08:57:18.735Z,16.93
2019-05-20T08:59:46.352Z,17.83
2019-05-20T09:02:13.962Z,15.80
2019-05-20T09:04:41.591Z,16.40
2019-05-20T09:07:09.214Z,17.00
2019-05-20T09:09:37.575Z,16.40
2019-05-20T09:12:05.172Z,15.07
2019-05-20T09:14:32.753Z,15.10
2019-05-20T09:17:00.916Z,16.73
2019-05-20T09:19:29.078Z,15.20
2019-05-20T09:21:56.760Z,17.53
2019-05-20T09:24:25.061Z,16.53
2019-05-20T09:26:53.436Z,15.33
2019-05-20T09:29:21.047Z,16.33
2019-05-20T09:31:48.677Z,15.83
2019-05-20T09:34:17.032Z,14.97
2019-05-20T09:36:44.623Z,14.57
2019-05-20T09:39:12.275Z,16.33
2019-05-20T09:41:39.846Z,13.33
2019-05-20T09:44:08.206Z,16.58
2019-05-20T09:46:35.864Z,16.90
2019-05-20T09:49:03.451Z,15.57
2019-05-20T09:51:31.038Z,13.60
2019-05-20T09:53:58.687Z,13.30
2019-05-20T09:56:27.015Z,13.97
2019-05-20T09:58:54.643Z,13.90
2019-05-20T10:01:22.254Z,22.20
2019-05-20T10:03:49.834Z,14.83
2019-05-20T10:06:18.440Z,20.62
2019-05-20T10:08:45.995Z,15.30
2019-05-20T10:11:13.605Z,16.50
2019-05-20T10:13:41.252Z,13.57
2019-05-20T10:16:08.871Z,14.07
2019-05-20T10:18:38.582Z,13.00
2019-05-20T10:21:04.075Z,13.37
2019-05-20T10:23:31.679Z,13.23
2019-05-20T10:25:59.378Z,13.20
2019-05-20T10:28:26.953Z,11.93
2019-05-20T10:30:54.952Z,12.57
2019-05-20T10:33:22.575Z,13.23
2019-05-20T10:35:50.214Z,12.77
2019-05-20T10:38:18.579Z,12.83
2019-05-20T10:40:47.045Z,12.37
2019-05-20T10:43:14.570Z,12.37
2019-05-20T10:45:42.252Z,12.13
2019-05-20T10:48:10.811Z,12.57
2019-05-20T10:50:38.403Z,12.30
2019-05-20T10:53:06.756Z,15.93
2019-05-20T10:55:34.931Z,21.40
2019-05-20T10:58:02.516Z,14.05
2019-05-20T11:00:30.869Z,12.87
2019-05-20T11:02:58.856Z,13.67
2019-05-20T11:05:26.429Z,12.83
2019-05-20T11:07:54.810Z,11.67
2019-05-20T11:10:22.423Z,13.63
2019-05-20T11:12:50.005Z,12.87
2019-05-20T11:15:17.636Z,16.67
2019-05-20T11:17:45.222Z,12.37
2019-05-20T11:20:12.823Z,13.03
2019-05-20T11:22:41.197Z,13.80
2019-05-20T11:25:09.844Z,11.70
2019-05-20T11:27:37.469Z,11.50
2019-05-20T11:30:05.105Z,11.17
2019-05-20T11:32:32.634Z,11.60
2019-05-20T11:35:00.262Z,12.47
2019-05-20T11:37:27.838Z,11.50
2019-05-20T11:39:55.424Z,11.30
2019-05-20T11:42:23.093Z,11.90
2019-05-20T11:44:50.693Z,11.13
2019-05-20T11:47:18.278Z,13.40
2019-05-20T11:49:45.924Z,10.57
2019-05-20T11:52:13.504Z,10.43
2019-05-20T11:54:41.086Z,9.73
2019-05-20T11:57:08.683Z,11.33
2019-05-20T11:59:36.273Z,10.17
2019-05-20T12:02:04.308Z,10.70
2019-05-20T12:04:31.546Z,9.73
2019-05-20T12:06:59.120Z,8.97
2019-05-20T12:09:26.752Z,9.00
2019-05-20T12:11:54.362Z,10.70
2019-05-20T12:14:21.919Z,9.63
2019-05-20T12:16:49.554Z,9.00
2019-05-20T12:19:17.125Z,8.93
2019-05-20T12:21:44.714Z,8.23
2019-05-20T12:24:13.106Z,7.77
2019-05-20T12:26:40.686Z,7.97
2019-05-20T12:29:08.259Z,7.93
2019-05-20T12:31:35.938Z,7.73
2019-05-20T12:34:03.512Z,8.00
2019-05-20T12:36:31.082Z,8.20
2019-05-20T12:38:58.719Z,7.35
2019-05-20T12:41:26.511Z,7.67
2019-05-20T12:44:10.811Z,6.50
2019-05-20T12:46:21.727Z,7.68
2019-05-20T12:48:49.428Z,7.07
2019-05-20T12:51:16.876Z,7.35
2019-05-20T12:53:45.266Z,6.80
2019-05-20T12:56:12.833Z,6.87
2019-05-20T12:58:40.411Z,7.20
2019-05-20T13:01:08.424Z,7.03
2019-05-20T13:03:35.997Z,6.80
2019-05-20T13:06:03.603Z,7.80
2019-05-20T13:08:31.945Z,8.30
2019-05-20T13:10:59.518Z,8.40
2019-05-20T13:13:27.936Z,7.93
2019-05-20T13:15:55.512Z,8.60
2019-05-20T13:18:23.091Z,7.23
2019-05-20T13:20:50.708Z,8.60
2019-05-20T13:23:18.282Z,8.10
2019-05-20T13:25:45.856Z,8.17
2019-05-20T13:28:16.750Z,8.73
2019-05-20T13:30:45.095Z,8.87
2019-05-20T13:33:12.669Z,7.53
2019-05-20T13:35:40.260Z,7.77
2019-05-20T13:38:07.842Z,9.85
2019-05-20T13:40:45.730Z,8.47
2019-05-20T13:43:03.326Z,8.33
2019-05-20T13:45:30.907Z,8.87
2019-05-20T13:47:59.290Z,9.37
2019-05-20T13:50:27.635Z,10.10
2019-05-20T13:52:55.217Z,9.47
2019-05-20T13:55:23.587Z,11.43
2019-05-20T13:57:51.202Z,10.07
2019-05-20T14:00:18.809Z,10.60
2019-05-20T14:02:46.382Z,11.63
2019-05-20T14:05:14.736Z,12.43
2019-05-20T14:07:42.361Z,10.20
2019-05-20T14:10:09.942Z,12.33
2019-05-20T14:12:37.529Z,10.53
2019-05-20T14:15:08.159Z,12.10
2019-05-20T14:17:35.836Z,12.63
2019-05-20T14:20:03.573Z,14.83
2019-05-20T14:22:31.923Z,15.63
2019-05-20T14:24:59.952Z,16.00
2019-05-20T14:27:27.121Z,16.13
2019-05-20T14:29:55.492Z,17.40
2019-05-20T14:32:23.840Z,17.27
2019-05-20T14:34:51.473Z,19.13
2019-05-20T14:37:19.042Z,18.53
2019-05-20T14:39:46.808Z,19.17
2019-05-20T14:42:15.101Z,22.20
2019-05-20T14:44:42.679Z,19.67
2019-05-20T14:47:10.259Z,18.97
2019-05-20T14:49:37.899Z,17.93
2019-05-20T14:52:05.465Z,19.03
2019-05-20T14:54:33.073Z,18.13
2019-05-20T14:57:00.678Z,18.00
2019-05-20T14:59:28.265Z,18.73
2019-05-20T15:01:55.900Z,16.43
2019-05-20T15:04:23.482Z,15.33
2019-05-20T15:06:51.059Z,16.03
2019-05-20T15:09:19.452Z,15.23
2019-05-20T15:11:47.796Z,16.07
2019-05-20T15:14:15.379Z,15.43
2019-05-20T15:16:43.770Z,15.70
2019-05-20T15:19:12.115Z,15.53
2019-05-20T15:21:39.807Z,15.13
2019-05-20T15:24:07.410Z,16.10
2019-05-20T15:26:34.980Z,15.70
2019-05-20T15:29:04.020Z,15.33
2019-05-20T15:31:30.699Z,16.90
2019-05-20T15:33:58.288Z,19.77
2019-05-20T15:36:26.017Z,16.87
2019-05-20T15:38:54.248Z,16.80
2019-05-20T15:41:21.827Z,19.83
2019-05-20T15:43:49.406Z,17.50
2019-05-20T15:46:17.771Z,18.37
2019-05-20T15:48:45.366Z,18.27
2019-05-20T15:51:13.260Z,19.80
2019-05-20T15:53:40.842Z,20.13
2019-05-20T15:56:08.446Z,18.93
2019-05-20T15:58:37.396Z,20.07
2019-05-20T16:01:05.014Z,19.33
2019-05-20T16:03:32.593Z,20.33
2019-05-20T16:06:00.657Z,19.03
2019-05-20T16:08:28.155Z,19.63
2019-05-20T16:10:55.740Z,20.43
2019-05-20T16:13:24.504Z,19.40
2019-05-20T16:15:52.074Z,20.27
2019-05-20T16:18:19.670Z,20.90
2019-05-20T16:20:47.800Z,21.97
2019-05-20T16:23:15.379Z,21.00
2019-05-20T16:25:42.965Z,22.17
2019-05-20T16:28:10.591Z,22.20
2019-05-20T16:30:38.183Z,21.07
2019-05-20T16:33:05.770Z,25.60
2019-05-20T16:35:33.618Z,22.23
2019-05-20T16:38:01.959Z,21.23
2019-05-20T16:40:29.668Z,20.03
2019-05-20T16:43:02.863Z,19.70
2019-05-20T16:45:30.488Z,21.73
2019-05-20T16:47:58.070Z,21.43
2019-05-20T16:50:25.654Z,22.23
2019-05-20T16:52:53.285Z,22.00
2019-05-20T16:55:21.640Z,22.73
2019-05-20T16:57:49.216Z,21.13
2019-05-20T17:00:30.941Z,21.23
2019-05-20T17:02:44.440Z,20.60
2019-05-20T17:05:12.019Z,20.73
2019-05-20T17:07:40.429Z,19.77
2019-05-20T17:10:08.016Z,18.73
2019-05-20T17:12:35.595Z,18.43
2019-05-20T17:15:03.220Z,17.37
2019-05-20T17:17:30.801Z,21.95
2019-05-20T17:19:58.465Z,17.37
2019-05-20T17:22:26.047Z,18.13
2019-05-20T17:24:53.636Z,18.70
2019-05-20T17:27:22.396Z,22.87
2019-05-20T17:29:49.975Z,19.50
2019-05-20T17:32:18.322Z,18.73
2019-05-20T17:34:46.309Z,18.60
2019-05-20T17:37:13.914Z,22.13
2019-05-20T17:39:42.237Z,18.63
2019-05-20T17:42:09.853Z,17.07
2019-05-20T17:44:38.193Z,17.67
2019-05-20T17:47:05.820Z,16.90
2019-05-20T17:49:33.415Z,18.00
2019-05-20T17:52:00.986Z,15.23
2019-05-20T17:54:28.623Z,13.80
2019-05-20T17:56:56.204Z,11.93
2019-05-20T17:59:23.787Z,11.10
2019-05-20T18:01:52.630Z,14.30
2019-05-20T18:04:20.220Z,13.00
2019-05-20T18:06:47.791Z,13.20
2019-05-20T18:09:15.421Z,13.33
2019-05-20T18:11:42.997Z,13.07
2019-05-20T18:14:10.896Z,14.47
2019-05-20T18:16:38.987Z,13.73
2019-05-20T18:19:06.565Z,13.87
2019-05-20T18:21:34.757Z,14.53
2019-05-20T18:24:02.380Z,16.10
2019-05-20T18:26:29.969Z,16.17
2019-05-20T18:28:58.072Z,16.83
2019-05-20T18:31:32.555Z,16.37
2019-05-20T18:33:54.002Z,16.65
2019-05-20T18:36:21.628Z,15.43
2019-05-20T18:38:49.807Z,14.50
2019-05-20T18:41:16.802Z,15.63
2019-05-20T18:43:44.430Z,15.37
2019-05-20T18:46:12.049Z,13.97
2019-05-20T18:48:39.615Z,13.90
2019-05-20T18:51:07.266Z,14.87
2019-05-20T18:53:34.832Z,14.20
2019-05-20T18:56:03.180Z,12.63
2019-05-20T18:58:31.187Z,11.77
2019-05-20T19:00:58.388Z,14.77
2019-05-20T19:03:26.906Z,13.93
2019-05-20T19:05:54.132Z,13.40
2019-05-20T19:08:21.714Z,13.30
2019-05-20T19:10:49.302Z,13.93
2019-05-20T19:13:17.672Z,17.23
2019-05-20T19:15:45.275Z,14.40
2019-05-20T19:18:12.874Z,14.57
2019-05-20T19:20:41.168Z,13.80
2019-05-20T19:23:08.809Z,14.90
2019-05-20T19:25:38.067Z,15.20
2019-05-20T19:28:03.960Z,15.70
2019-05-20T19:30:31.595Z,15.17
2019-05-20T19:32:59.175Z,13.80
2019-05-20T19:35:26.762Z,13.77
2019-05-20T19:37:55.187Z,17.17
2019-05-20T19:40:22.802Z,14.00
2019-05-20T19:42:50.555Z,13.70
2019-05-20T19:45:19.015Z,16.43
2019-05-20T19:47:46.596Z,17.60
2019-05-20T19:50:14.221Z,19.12
2019-05-20T19:52:41.857Z,16.37
2019-05-20T19:55:09.463Z,15.73
2019-05-20T19:57:37.050Z,15.87
2019-05-20T20:00:05.699Z,19.52
2019-05-20T20:02:33.284Z,16.93
2019-05-20T20:05:00.870Z,18.70
2019-05-20T20:07:28.903Z,24.15
2019-05-20T20:09:56.067Z,24.60
2019-05-20T20:12:23.697Z,20.40
2019-05-20T20:14:51.294Z,18.13
2019-05-20T20:17:18.884Z,20.00
2019-05-20T20:19:47.353Z,23.98
2019-05-20T20:22:15.713Z,20.50
2019-05-20T20:24:43.335Z,19.23
2019-05-20T20:27:10.954Z,19.70
2019-05-20T20:29:38.532Z,18.43
2019-05-20T20:32:07.289Z,17.97
2019-05-20T20:34:34.870Z,18.23
2019-05-20T20:37:02.451Z,21.55
2019-05-20T20:39:30.086Z,18.13
2019-05-20T20:41:57.663Z,17.43
2019-05-20T20:44:26.040Z,18.90
2019-05-20T20:46:54.492Z,16.93
2019-05-20T20:49:22.078Z,16.57
2019-05-20T20:51:50.432Z,17.10
2019-05-20T20:54:18.057Z,16.77
2019-05-20T20:56:45.628Z,17.37
2019-05-20T20:59:13.211Z,17.97
2019-05-20T21:01:40.832Z,22.00
2019-05-20T21:04:08.415Z,22.58
2019-05-20T21:06:37.107Z,19.30
2019-05-20T21:09:04.695Z,19.90
2019-05-20T21:11:32.273Z,18.87
2019-05-20T21:13:59.900Z,20.97
2019-05-20T21:16:27.486Z,21.67
2019-05-20T21:18:55.078Z,23.77
2019-05-20T21:21:23.474Z,20.20
2019-05-20T21:23:51.083Z,23.27
2019-05-20T21:26:18.640Z,22.50
2019-05-20T21:28:46.263Z,23.30
2019-05-20T21:31:13.836Z,22.10
2019-05-20T21:33:41.413Z,24.87
2019-05-20T21:36:09.507Z,22.83
2019-05-20T21:38:37.089Z,21.83
2019-05-20T21:41:04.699Z,26.58
2019-05-20T21:43:32.551Z,23.97
2019-05-20T21:46:00.137Z,23.03
2019-05-20T21:48:27.719Z,21.93
2019-05-20T21:50:55.336Z,21.00
2019-05-20T21:53:22.926Z,25.45
2019-05-20T21:55:50.549Z,20.57
2019-05-20T21:58:18.128Z,19.60
2019-05-20T22:00:48.150Z,19.20
2019-05-20T22:03:23.974Z,19.67
2019-05-20T22:05:44.144Z,18.93
2019-05-20T22:08:11.759Z,18.73
2019-05-20T22:10:39.340Z,20.98
2019-05-20T22:13:06.927Z,17.40
2019-05-20T22:15:34.552Z,14.90
2019-05-20T22:18:02.131Z,12.90
2019-05-20T22:20:29.721Z,13.23
2019-05-20T22:23:15.803Z,13.77
2019-05-20T22:25:43.379Z,13.37
2019-05-20T22:28:12.860Z,12.27
2019-05-20T22:30:39.688Z,11.80
2019-05-20T22:33:07.272Z,15.13
2019-05-20T22:35:34.855Z,11.90
2019-05-20T22:38:03.247Z,10.90
2019-05-20T22:40:30.827Z,11.03
2019-05-20T22:42:58.402Z,11.40
2019-05-20T22:45:26.281Z,10.17
2019-05-20T22:47:53.859Z,9.97
2019-05-20T22:50:22.209Z,10.27
2019-05-20T22:52:49.793Z,10.37
2019-05-20T22:55:17.379Z,9.73
2019-05-20T22:57:44.998Z,12.15
2019-05-20T23:00:12.582Z,10.13
2019-05-20T23:02:40.182Z,9.80
2019-05-20T23:05:08.543Z,9.67
2019-05-20T23:07:36.122Z,9.73
2019-05-20T23:10:05.235Z,8.80
2019-05-20T23:12:32.826Z,9.93
2019-05-20T23:15:00.404Z,9.73
2019-05-20T23:17:28.014Z,8.50
2019-05-20T23:19:55.591Z,9.63
2019-05-20T23:22:23.172Z,9.87
2019-05-20T23:24:50.791Z,10.03
2019-05-20T23:27:19.150Z,9.33
2019-05-20T23:29:46.731Z,10.20
2019-05-20T23:32:15.103Z,11.50
2019-05-20T23:34:43.451Z,10.17
2019-05-20T23:37:11.081Z,8.93
2019-05-20T23:39:38.664Z,11.07
2019-05-20T23:42:06.243Z,9.43
2019-05-20T23:44:33.854Z,9.07
2019-05-20T23:47:01.457Z,9.90
2019-05-20T23:49:29.018Z,8.27
2019-05-20T23:51:56.639Z,7.60
2019-05-20T23:54:24.214Z,7.33
2019-05-20T23:56:51.803Z,8.20
2019-05-20T23:59:19.442Z,7.33
